sensor_id;sensor_type;location;lat;lon;timestamp;pressure;altitude;pressure_sealevel;temperature;humidity
85016;BME280;75339;50.216;20.512;2024-01-10T00:02:19;100726.95;;;-16.90;73.85
85016;BME280;75339;50.216;20.512;2024-01-10T00:04:46;100731.36;;;-16.95;73.89
85016;BME280;75339;50.216;20.512;2024-01-10T00:07:13;100734.59;;;-17.01;73.61
85016;BME280;75339;50.216;20.512;2024-01-10T00:09:39;100737.02;;;-17.03;73.67
85016;BME280;75339;50.216;20.512;2024-01-10T00:12:06;100739.89;;;-16.97;73.91
85016;BME280;75339;50.216;20.512;2024-01-10T00:14:33;100740.98;;;-16.85;74.27
85016;BME280;75339;50.216;20.512;2024-01-10T00:16:59;100735.35;;;-16.86;74.18
85016;BME280;75339;50.216;20.512;2024-01-10T00:19:26;100746.54;;;-16.91;73.41
85016;BME280;75339;50.216;20.512;2024-01-10T00:21:53;100746.23;;;-17.06;73.28
85016;BME280;75339;50.216;20.512;2024-01-10T00:24:19;100746.80;;;-17.28;72.73
85016;BME280;75339;50.216;20.512;2024-01-10T00:26:46;100750.84;;;-17.48;73.05
85016;BME280;75339;50.216;20.512;2024-01-10T00:29:13;100748.23;;;-17.64;73.24
85016;BME280;75339;50.216;20.512;2024-01-10T00:31:40;100740.96;;;-17.81;72.81
85016;BME280;75339;50.216;20.512;2024-01-10T00:34:07;100734.98;;;-17.97;73.05
85016;BME280;75339;50.216;20.512;2024-01-10T00:36:33;100735.58;;;-18.13;73.03
85016;BME280;75339;50.216;20.512;2024-01-10T00:39:00;100737.70;;;-18.24;73.58
85016;BME280;75339;50.216;20.512;2024-01-10T00:41:27;100735.15;;;-18.25;73.93
85016;BME280;75339;50.216;20.512;2024-01-10T00:43:54;100687.58;;;-18.51;74.07
85016;BME280;75339;50.216;20.512;2024-01-10T00:46:20;100733.23;;;-18.15;74.60
85016;BME280;75339;50.216;20.512;2024-01-10T00:48:47;100729.62;;;-17.98;75.27
85016;BME280;75339;50.216;20.512;2024-01-10T00:51:14;100728.23;;;-17.83;75.18
85016;BME280;75339;50.216;20.512;2024-01-10T00:53:41;100717.86;;;-17.78;74.77
85016;BME280;75339;50.216;20.512;2024-01-10T00:56:09;100710.14;;;-17.84;74.15
85016;BME280;75339;50.216;20.512;2024-01-10T00:58:36;100715.23;;;-17.87;74.26
85016;BME280;75339;50.216;20.512;2024-01-10T01:01:04;100715.20;;;-17.98;73.68
85016;BME280;75339;50.216;20.512;2024-01-10T01:03:31;100709.67;;;-18.06;73.56
85016;BME280;75339;50.216;20.512;2024-01-10T01:05:58;100707.67;;;-18.14;73.75
85016;BME280;75339;50.216;20.512;2024-01-10T01:08:25;100712.43;;;-18.13;74.24
85016;BME280;75339;50.216;20.512;2024-01-10T01:10:52;100711.95;;;-18.04;74.83
85016;BME280;75339;50.216;20.512;2024-01-10T01:13:20;100705.63;;;-17.95;74.93
85016;BME280;75339;50.216;20.512;2024-01-10T01:15:47;100709.25;;;-17.86;75.04
85016;BME280;75339;50.216;20.512;2024-01-10T01:18:14;100710.23;;;-17.79;75.11
85016;BME280;75339;50.216;20.512;2024-01-10T01:20:43;100712.30;;;-17.65;75.27
85016;BME280;75339;50.216;20.512;2024-01-10T01:23:11;100713.89;;;-17.48;75.40
85016;BME280;75339;50.216;20.512;2024-01-10T01:25:38;100711.79;;;-17.30;75.70
85016;BME280;75339;50.216;20.512;2024-01-10T01:28:05;100705.64;;;-17.17;75.41
85016;BME280;75339;50.216;20.512;2024-01-10T01:30:32;100702.98;;;-17.11;75.19
85016;BME280;75339;50.216;20.512;2024-01-10T01:32:58;100703.41;;;-17.05;75.20
85016;BME280;75339;50.216;20.512;2024-01-10T01:35:26;100705.32;;;-17.02;74.96
85016;BME280;75339;50.216;20.512;2024-01-10T01:37:55;100664.85;;;-17.22;74.93
85016;BME280;75339;50.216;20.512;2024-01-10T01:40:22;100706.73;;;-17.03;74.66
85016;BME280;75339;50.216;20.512;2024-01-10T01:42:50;100700.77;;;-17.06;74.37
85016;BME280;75339;50.216;20.512;2024-01-10T01:45:17;100699.99;;;-17.07;74.77
85016;BME280;75339;50.216;20.512;2024-01-10T01:47:44;100703.06;;;-17.07;74.79
85016;BME280;75339;50.216;20.512;2024-01-10T01:50:12;100701.03;;;-16.94;74.88
85016;BME280;75339;50.216;20.512;2024-01-10T01:52:39;100696.30;;;-16.85;74.87
85016;BME280;75339;50.216;20.512;2024-01-10T01:55:08;100690.27;;;-16.72;75.01
85016;BME280;75339;50.216;20.512;2024-01-10T01:57:37;100691.98;;;-16.68;74.71
85016;BME280;75339;50.216;20.512;2024-01-10T02:00:05;100684.14;;;-16.79;74.03
85016;BME280;75339;50.216;20.512;2024-01-10T02:02:32;100680.13;;;-16.95;73.93
85016;BME280;75339;50.216;20.512;2024-01-10T02:05:01;100681.39;;;-17.03;73.88
85016;BME280;75339;50.216;20.512;2024-01-10T02:07:27;100683.65;;;-17.08;74.10
85016;BME280;75339;50.216;20.512;2024-01-10T02:09:54;100660.66;;;-17.16;74.55
85016;BME280;75339;50.216;20.512;2024-01-10T02:12:21;100669.25;;;-16.99;75.28
85016;BME280;75339;50.216;20.512;2024-01-10T02:14:48;100667.64;;;-16.87;75.59
85016;BME280;75339;50.216;20.512;2024-01-10T02:17:15;100669.04;;;-16.73;75.73
85016;BME280;75339;50.216;20.512;2024-01-10T02:19:41;100665.17;;;-16.57;76.05
85016;BME280;75339;50.216;20.512;2024-01-10T02:22:08;100667.59;;;-16.57;74.84
85016;BME280;75339;50.216;20.512;2024-01-10T02:24:34;100676.41;;;-16.74;74.00
85016;BME280;75339;50.216;20.512;2024-01-10T02:27:02;100681.44;;;-16.90;73.97
85016;BME280;75339;50.216;20.512;2024-01-10T02:29:30;100682.41;;;-16.90;74.59
85016;BME280;75339;50.216;20.512;2024-01-10T02:31:56;100680.83;;;-16.83;74.89
85016;BME280;75339;50.216;20.512;2024-01-10T02:34:23;100677.91;;;-16.74;74.86
85016;BME280;75339;50.216;20.512;2024-01-10T02:36:50;100674.09;;;-16.65;74.99
85016;BME280;75339;50.216;20.512;2024-01-10T02:39:16;100685.63;;;-16.55;75.08
85016;BME280;75339;50.216;20.512;2024-01-10T02:41:43;100683.18;;;-16.50;75.00
85016;BME280;75339;50.216;20.512;2024-01-10T02:44:09;100672.41;;;-16.43;75.06
85016;BME280;75339;50.216;20.512;2024-01-10T02:46:36;100669.38;;;-16.38;75.06
85016;BME280;75339;50.216;20.512;2024-01-10T02:49:03;100664.35;;;-16.37;74.77
85016;BME280;75339;50.216;20.512;2024-01-10T02:51:31;100665.42;;;-16.45;74.44
85016;BME280;75339;50.216;20.512;2024-01-10T02:53:57;100669.89;;;-16.52;74.63
85016;BME280;75339;50.216;20.512;2024-01-10T02:56:24;100668.83;;;-16.51;74.65
85016;BME280;75339;50.216;20.512;2024-01-10T02:58:51;100662.80;;;-16.46;74.91
85016;BME280;75339;50.216;20.512;2024-01-10T03:01:17;100657.33;;;-16.45;74.75
85016;BME280;75339;50.216;20.512;2024-01-10T03:03:45;100648.73;;;-16.56;73.94
85016;BME280;75339;50.216;20.512;2024-01-10T03:06:12;100648.98;;;-16.78;73.38
85016;BME280;75339;50.216;20.512;2024-01-10T03:08:38;100651.70;;;-17.02;73.39
85016;BME280;75339;50.216;20.512;2024-01-10T03:11:05;100648.38;;;-17.19;73.25
85016;BME280;75339;50.216;20.512;2024-01-10T03:13:31;100650.64;;;-17.25;73.80
85016;BME280;75339;50.216;20.512;2024-01-10T03:15:59;100651.44;;;-17.18;74.24
85016;BME280;75339;50.216;20.512;2024-01-10T03:18:25;100650.83;;;-17.07;74.48
85016;BME280;75339;50.216;20.512;2024-01-10T03:20:52;100655.61;;;-16.92;74.75
85016;BME280;75339;50.216;20.512;2024-01-10T03:23:19;100649.87;;;-16.79;74.81
85016;BME280;75339;50.216;20.512;2024-01-10T03:25:45;100627.04;;;-16.73;74.93
85016;BME280;75339;50.216;20.512;2024-01-10T03:28:16;100640.09;;;-16.49;75.05
85016;BME280;75339;50.216;20.512;2024-01-10T03:30:44;100635.66;;;-16.46;74.40
85016;BME280;75339;50.216;20.512;2024-01-10T03:33:11;100631.51;;;-16.66;73.11
85016;BME280;75339;50.216;20.512;2024-01-10T03:35:38;100637.40;;;-17.21;70.68
85016;BME280;75339;50.216;20.512;2024-01-10T03:38:04;100643.11;;;-17.58;72.06
85016;BME280;75339;50.216;20.512;2024-01-10T03:40:31;100648.84;;;-17.52;73.63
85016;BME280;75339;50.216;20.512;2024-01-10T03:42:58;100657.30;;;-17.31;73.90
85016;BME280;75339;50.216;20.512;2024-01-10T03:45:24;100654.21;;;-17.07;74.61
85016;BME280;75339;50.216;20.512;2024-01-10T03:47:51;100647.64;;;-16.85;74.49
85016;BME280;75339;50.216;20.512;2024-01-10T03:50:19;100641.23;;;-16.64;74.50
85016;BME280;75339;50.216;20.512;2024-01-10T03:52:46;100644.09;;;-16.43;74.75
85016;BME280;75339;50.216;20.512;2024-01-10T03:55:13;100647.86;;;-16.21;74.88
85016;BME280;75339;50.216;20.512;2024-01-10T03:57:42;100636.84;;;-16.04;74.99
85016;BME280;75339;50.216;20.512;2024-01-10T04:00:08;100628.60;;;-15.88;74.88
85016;BME280;75339;50.216;20.512;2024-01-10T04:02:37;100617.69;;;-15.88;74.43
85016;BME280;75339;50.216;20.512;2024-01-10T04:05:09;100616.14;;;-16.05;72.54
85016;BME280;75339;50.216;20.512;2024-01-10T04:07:36;100626.55;;;-16.77;69.37
85016;BME280;75339;50.216;20.512;2024-01-10T04:10:03;100631.89;;;-17.25;70.87
85016;BME280;75339;50.216;20.512;2024-01-10T04:12:30;100637.09;;;-17.38;71.85
85016;BME280;75339;50.216;20.512;2024-01-10T04:14:57;100642.34;;;-17.36;72.36
85016;BME280;75339;50.216;20.512;2024-01-10T04:17:23;100637.56;;;-17.27;73.18
85016;BME280;75339;50.216;20.512;2024-01-10T04:19:50;100635.02;;;-17.18;73.09
85016;BME280;75339;50.216;20.512;2024-01-10T04:22:17;100636.45;;;-17.11;73.17
85016;BME280;75339;50.216;20.512;2024-01-10T04:24:43;100635.36;;;-17.03;73.18
85016;BME280;75339;50.216;20.512;2024-01-10T04:27:10;100637.23;;;-16.89;73.49
85016;BME280;75339;50.216;20.512;2024-01-10T04:29:37;100635.73;;;-16.76;73.84
85016;BME280;75339;50.216;20.512;2024-01-10T04:32:04;100634.94;;;-16.64;73.87
85016;BME280;75339;50.216;20.512;2024-01-10T04:34:31;100637.44;;;-16.63;73.68
85016;BME280;75339;50.216;20.512;2024-01-10T04:36:57;100637.90;;;-16.70;73.35
85016;BME280;75339;50.216;20.512;2024-01-10T04:39:24;100638.19;;;-16.81;73.43
85016;BME280;75339;50.216;20.512;2024-01-10T04:41:51;100639.67;;;-16.96;73.32
85016;BME280;75339;50.216;20.512;2024-01-10T04:44:17;100635.07;;;-17.03;73.34
85016;BME280;75339;50.216;20.512;2024-01-10T04:46:44;100634.27;;;-17.09;73.22
85016;BME280;75339;50.216;20.512;2024-01-10T04:49:11;100630.34;;;-17.16;73.38
85016;BME280;75339;50.216;20.512;2024-01-10T04:51:40;100630.14;;;-17.21;73.47
85016;BME280;75339;50.216;20.512;2024-01-10T04:54:07;100627.70;;;-17.44;71.70
85016;BME280;75339;50.216;20.512;2024-01-10T04:56:35;100626.73;;;-17.87;70.74
85016;BME280;75339;50.216;20.512;2024-01-10T04:59:05;100625.96;;;-18.23;71.08
85016;BME280;75339;50.216;20.512;2024-01-10T05:01:32;100628.57;;;-18.43;72.15
85016;BME280;75339;50.216;20.512;2024-01-10T05:03:59;100630.16;;;-18.44;73.21
85016;BME280;75339;50.216;20.512;2024-01-10T05:06:26;100629.46;;;-18.41;73.72
85016;BME280;75339;50.216;20.512;2024-01-10T05:08:52;100623.59;;;-18.41;73.50
85016;BME280;75339;50.216;20.512;2024-01-10T05:11:25;100619.41;;;-18.41;73.49
85016;BME280;75339;50.216;20.512;2024-01-10T05:13:55;100620.71;;;-18.37;74.12
85016;BME280;75339;50.216;20.512;2024-01-10T05:16:21;100616.23;;;-18.18;75.19
85016;BME280;75339;50.216;20.512;2024-01-10T05:18:48;100608.61;;;-17.94;75.98
85016;BME280;75339;50.216;20.512;2024-01-10T05:21:15;100606.55;;;-17.76;75.76
85016;BME280;75339;50.216;20.512;2024-01-10T05:23:41;100610.61;;;-17.70;75.07
85016;BME280;75339;50.216;20.512;2024-01-10T05:26:08;100610.45;;;-17.63;74.93
85016;BME280;75339;50.216;20.512;2024-01-10T05:28:35;100605.16;;;-17.51;75.19
85016;BME280;75339;50.216;20.512;2024-01-10T05:31:01;100605.39;;;-17.33;75.41
85016;BME280;75339;50.216;20.512;2024-01-10T05:33:28;100607.75;;;-17.18;75.37
85016;BME280;75339;50.216;20.512;2024-01-10T05:35:55;100608.85;;;-17.02;75.51
85016;BME280;75339;50.216;20.512;2024-01-10T05:38:21;100604.55;;;-16.89;75.43
85016;BME280;75339;50.216;20.512;2024-01-10T05:40:48;100608.19;;;-16.77;75.23
85016;BME280;75339;50.216;20.512;2024-01-10T05:43:15;100612.98;;;-16.76;74.54
85016;BME280;75339;50.216;20.512;2024-01-10T05:45:42;100610.89;;;-16.96;73.16
85016;BME280;75339;50.216;20.512;2024-01-10T05:48:08;100613.00;;;-17.27;72.27
85016;BME280;75339;50.216;20.512;2024-01-10T05:50:35;100620.30;;;-17.64;72.29
85016;BME280;75339;50.216;20.512;2024-01-10T05:53:02;100626.06;;;-17.79;73.49
85016;BME280;75339;50.216;20.512;2024-01-10T05:55:28;100630.27;;;-17.71;74.39
85016;BME280;75339;50.216;20.512;2024-01-10T05:57:55;100632.91;;;-17.63;74.56
85016;BME280;75339;50.216;20.512;2024-01-10T06:00:22;100636.38;;;-17.60;74.21
85016;BME280;75339;50.216;20.512;2024-01-10T06:02:49;100636.02;;;-17.59;73.98
85016;BME280;75339;50.216;20.512;2024-01-10T06:05:16;100599.56;;;-17.75;74.13
85016;BME280;75339;50.216;20.512;2024-01-10T06:07:42;100644.35;;;-17.47;74.32
85016;BME280;75339;50.216;20.512;2024-01-10T06:10:09;100645.34;;;-17.45;74.08
85016;BME280;75339;50.216;20.512;2024-01-10T06:12:36;100649.38;;;-17.45;73.98
85016;BME280;75339;50.216;20.512;2024-01-10T06:15:03;100649.33;;;-17.42;74.17
85016;BME280;75339;50.216;20.512;2024-01-10T06:17:29;100653.11;;;-17.50;73.62
85016;BME280;75339;50.216;20.512;2024-01-10T06:19:57;100661.06;;;-17.53;74.02
85016;BME280;75339;50.216;20.512;2024-01-10T06:22:26;100660.67;;;-17.49;74.35
85016;BME280;75339;50.216;20.512;2024-01-10T06:24:52;100659.73;;;-17.48;74.06
85016;BME280;75339;50.216;20.512;2024-01-10T06:27:19;100660.97;;;-17.61;73.35
85016;BME280;75339;50.216;20.512;2024-01-10T06:29:47;100660.02;;;-17.81;73.25
85016;BME280;75339;50.216;20.512;2024-01-10T06:32:13;100671.48;;;-17.94;72.90
85016;BME280;75339;50.216;20.512;2024-01-10T06:34:40;100672.33;;;-18.02;73.12
85016;BME280;75339;50.216;20.512;2024-01-10T06:37:08;100674.02;;;-18.03;73.37
85016;BME280;75339;50.216;20.512;2024-01-10T06:39:34;100679.17;;;-18.01;73.41
85016;BME280;75339;50.216;20.512;2024-01-10T06:42:02;100682.16;;;-17.91;73.74
85016;BME280;75339;50.216;20.512;2024-01-10T06:44:32;100669.56;;;-17.83;73.48
85016;BME280;75339;50.216;20.512;2024-01-10T06:47:00;100669.52;;;-17.75;73.11
85016;BME280;75339;50.216;20.512;2024-01-10T06:49:27;100669.66;;;-17.84;71.14
85016;BME280;75339;50.216;20.512;2024-01-10T06:51:53;100633.10;;;-18.34;69.59
85016;BME280;75339;50.216;20.512;2024-01-10T06:54:20;100665.61;;;-18.40;69.14
85016;BME280;75339;50.216;20.512;2024-01-10T06:56:47;100659.61;;;-18.56;69.38
85016;BME280;75339;50.216;20.512;2024-01-10T06:59:13;100663.73;;;-18.51;69.89
85016;BME280;75339;50.216;20.512;2024-01-10T07:01:40;100657.00;;;-18.34;70.16
85016;BME280;75339;50.216;20.512;2024-01-10T07:04:07;100660.02;;;-18.08;70.54
85016;BME280;75339;50.216;20.512;2024-01-10T07:06:33;100650.80;;;-17.76;70.40
85016;BME280;75339;50.216;20.512;2024-01-10T07:09:00;100657.02;;;-17.40;70.60
85016;BME280;75339;50.216;20.512;2024-01-10T07:11:27;100653.80;;;-16.97;70.15
85016;BME280;75339;50.216;20.512;2024-01-10T07:13:55;100651.62;;;-16.81;68.89
85016;BME280;75339;50.216;20.512;2024-01-10T07:16:22;100649.85;;;-16.78;68.21
85016;BME280;75339;50.216;20.512;2024-01-10T07:18:48;100646.22;;;-16.71;68.00
85016;BME280;75339;50.216;20.512;2024-01-10T07:21:17;100646.09;;;-16.59;67.79
85016;BME280;75339;50.216;20.512;2024-01-10T07:23:44;100643.63;;;-16.51;67.52
85016;BME280;75339;50.216;20.512;2024-01-10T07:26:13;100649.96;;;-16.41;67.22
85016;BME280;75339;50.216;20.512;2024-01-10T07:28:40;100650.39;;;-16.26;67.01
85016;BME280;75339;50.216;20.512;2024-01-10T07:31:08;100638.76;;;-16.03;66.94
85016;BME280;75339;50.216;20.512;2024-01-10T07:33:34;100636.70;;;-15.75;66.59
85016;BME280;75339;50.216;20.512;2024-01-10T07:36:01;100632.16;;;-15.65;65.37
85016;BME280;75339;50.216;20.512;2024-01-10T07:38:28;100634.64;;;-15.90;64.51
85016;BME280;75339;50.216;20.512;2024-01-10T07:40:55;100638.48;;;-16.28;64.57
85016;BME280;75339;50.216;20.512;2024-01-10T07:43:21;100638.40;;;-16.20;65.20
85016;BME280;75339;50.216;20.512;2024-01-10T07:45:48;100596.91;;;-16.03;65.49
85016;BME280;75339;50.216;20.512;2024-01-10T07:48:15;100646.69;;;-15.43;64.90
85016;BME280;75339;50.216;20.512;2024-01-10T07:50:42;100640.16;;;-15.19;64.45
85016;BME280;75339;50.216;20.512;2024-01-10T07:53:08;100625.06;;;-14.80;64.65
85016;BME280;75339;50.216;20.512;2024-01-10T07:55:35;100604.48;;;-14.32;64.32
85016;BME280;75339;50.216;20.512;2024-01-10T07:58:02;100612.75;;;-13.87;63.49
85016;BME280;75339;50.216;20.512;2024-01-10T08:00:28;100605.20;;;-13.78;62.63
85016;BME280;75339;50.216;20.512;2024-01-10T08:02:56;100604.49;;;-13.78;62.12
85016;BME280;75339;50.216;20.512;2024-01-10T08:05:24;100605.06;;;-13.90;60.97
85016;BME280;75339;50.216;20.512;2024-01-10T08:07:51;100600.95;;;-14.62;60.01
85016;BME280;75339;50.216;20.512;2024-01-10T08:10:18;100609.35;;;-15.51;60.85
85016;BME280;75339;50.216;20.512;2024-01-10T08:12:44;100611.72;;;-16.13;62.57
85016;BME280;75339;50.216;20.512;2024-01-10T08:15:12;100613.34;;;-16.43;64.34
85016;BME280;75339;50.216;20.512;2024-01-10T08:17:38;100612.66;;;-16.53;64.77
85016;BME280;75339;50.216;20.512;2024-01-10T08:20:06;100610.97;;;-16.60;65.27
85016;BME280;75339;50.216;20.512;2024-01-10T08:22:37;100607.69;;;-16.49;65.48
85016;BME280;75339;50.216;20.512;2024-01-10T08:25:04;100602.98;;;-16.54;65.23
85016;BME280;75339;50.216;20.512;2024-01-10T08:27:31;100601.94;;;-16.67;66.28
85016;BME280;75339;50.216;20.512;2024-01-10T08:29:57;100608.16;;;-16.74;67.32
85016;BME280;75339;50.216;20.512;2024-01-10T08:32:24;100611.69;;;-16.62;68.43
85016;BME280;75339;50.216;20.512;2024-01-10T08:34:51;100621.76;;;-16.40;69.07
85016;BME280;75339;50.216;20.512;2024-01-10T08:37:17;100623.22;;;-16.08;69.55
85016;BME280;75339;50.216;20.512;2024-01-10T08:39:44;100618.98;;;-15.73;69.46
85016;BME280;75339;50.216;20.512;2024-01-10T08:42:10;100612.96;;;-15.47;69.38
85016;BME280;75339;50.216;20.512;2024-01-10T08:44:37;100598.72;;;-15.41;69.39
85016;BME280;75339;50.216;20.512;2024-01-10T08:47:04;100603.34;;;-15.32;69.18
85016;BME280;75339;50.216;20.512;2024-01-10T08:49:31;100607.77;;;-15.28;69.71
85016;BME280;75339;50.216;20.512;2024-01-10T08:51:57;100605.10;;;-15.23;70.14
85016;BME280;75339;50.216;20.512;2024-01-10T08:54:24;100618.31;;;-15.09;70.79
85016;BME280;75339;50.216;20.512;2024-01-10T08:56:51;100608.02;;;-14.90;70.97
85016;BME280;75339;50.216;20.512;2024-01-10T08:59:18;100611.63;;;-14.76;70.52
85016;BME280;75339;50.216;20.512;2024-01-10T09:01:45;100615.29;;;-14.62;70.19
85016;BME280;75339;50.216;20.512;2024-01-10T09:04:12;100617.97;;;-14.31;70.37
85016;BME280;75339;50.216;20.512;2024-01-10T09:06:38;100616.11;;;-13.49;69.23
85016;BME280;75339;50.216;20.512;2024-01-10T09:09:05;100614.50;;;-12.78;67.48
85016;BME280;75339;50.216;20.512;2024-01-10T09:11:33;100603.80;;;-12.38;65.66
85016;BME280;75339;50.216;20.512;2024-01-10T09:13:59;100602.83;;;-12.18;64.72
85016;BME280;75339;50.216;20.512;2024-01-10T09:16:26;100601.64;;;-12.11;64.37
85016;BME280;75339;50.216;20.512;2024-01-10T09:18:53;100596.69;;;-11.71;64.76
85016;BME280;75339;50.216;20.512;2024-01-10T09:21:25;100591.84;;;-11.34;63.14
85016;BME280;75339;50.216;20.512;2024-01-10T09:23:53;100589.08;;;-10.94;62.28
85016;BME280;75339;50.216;20.512;2024-01-10T09:26:19;100588.83;;;-10.45;61.59
85016;BME280;75339;50.216;20.512;2024-01-10T09:28:46;100599.02;;;-9.92;60.93
85016;BME280;75339;50.216;20.512;2024-01-10T09:31:13;100578.29;;;-9.52;59.71
85016;BME280;75339;50.216;20.512;2024-01-10T09:33:40;100576.46;;;-9.53;58.50
85016;BME280;75339;50.216;20.512;2024-01-10T09:36:07;100581.48;;;-9.87;59.17
85016;BME280;75339;50.216;20.512;2024-01-10T09:38:36;100583.36;;;-10.03;60.26
85016;BME280;75339;50.216;20.512;2024-01-10T09:41:06;100577.42;;;-10.00;60.37
85016;BME280;75339;50.216;20.512;2024-01-10T09:43:33;100577.34;;;-10.16;60.37
85016;BME280;75339;50.216;20.512;2024-01-10T09:46:03;100573.80;;;-9.96;61.62
85016;BME280;75339;50.216;20.512;2024-01-10T09:48:33;100564.35;;;-8.76;59.86
85016;BME280;75339;50.216;20.512;2024-01-10T09:51:00;100554.30;;;-7.64;56.64
85016;BME280;75339;50.216;20.512;2024-01-10T09:53:27;100555.98;;;-7.17;54.54
85016;BME280;75339;50.216;20.512;2024-01-10T09:55:54;100552.61;;;-6.83;53.68
85016;BME280;75339;50.216;20.512;2024-01-10T09:58:23;100548.09;;;-6.42;53.15
85016;BME280;75339;50.216;20.512;2024-01-10T10:00:53;100547.27;;;-5.51;53.61
85016;BME280;75339;50.216;20.512;2024-01-10T10:03:19;100534.67;;;-5.38;50.91
85016;BME280;75339;50.216;20.512;2024-01-10T10:05:46;100537.51;;;-5.51;50.60
85016;BME280;75339;50.216;20.512;2024-01-10T10:08:14;100535.65;;;-5.05;50.85
85016;BME280;75339;50.216;20.512;2024-01-10T10:10:42;100519.90;;;-4.47;49.43
85016;BME280;75339;50.216;20.512;2024-01-10T10:13:27;100517.14;;;-4.45;47.79
85016;BME280;75339;50.216;20.512;2024-01-10T10:15:58;100518.80;;;-4.73;47.26
85016;BME280;75339;50.216;20.512;2024-01-10T10:18:30;100516.81;;;-5.21;47.45
85016;BME280;75339;50.216;20.512;2024-01-10T10:23:40;100518.23;;;-5.35;47.85
85016;BME280;75339;50.216;20.512;2024-01-10T10:26:17;100520.61;;;-5.29;47.17
85016;BME280;75339;50.216;20.512;2024-01-10T10:28:48;100523.11;;;-5.13;47.31
85016;BME280;75339;50.216;20.512;2024-01-10T10:31:18;100518.50;;;-4.38;47.17
85016;BME280;75339;50.216;20.512;2024-01-10T10:33:48;100510.40;;;-3.67;46.20
85016;BME280;75339;50.216;20.512;2024-01-10T10:36:17;100507.48;;;-3.77;45.23
85016;BME280;75339;50.216;20.512;2024-01-10T10:38:44;100506.70;;;-3.88;45.46
85016;BME280;75339;50.216;20.512;2024-01-10T10:41:10;100508.84;;;-3.80;45.14
85016;BME280;75339;50.216;20.512;2024-01-10T10:43:38;100481.33;;;-3.67;45.02
85016;BME280;75339;50.216;20.512;2024-01-10T10:46:09;100505.42;;;-3.24;44.39
85016;BME280;75339;50.216;20.512;2024-01-10T10:48:38;100494.06;;;-2.93;44.35
85016;BME280;75339;50.216;20.512;2024-01-10T10:51:08;100484.26;;;-2.61;43.33
85016;BME280;75339;50.216;20.512;2024-01-10T10:53:37;100484.31;;;-2.54;43.12
85016;BME280;75339;50.216;20.512;2024-01-10T10:56:06;100480.29;;;-2.44;42.73
85016;BME280;75339;50.216;20.512;2024-01-10T10:58:35;100473.47;;;-2.60;42.55
85016;BME280;75339;50.216;20.512;2024-01-10T11:01:05;100473.60;;;-3.13;43.07
85016;BME280;75339;50.216;20.512;2024-01-10T11:03:35;100475.57;;;-3.11;44.57
85016;BME280;75339;50.216;20.512;2024-01-10T11:06:03;100468.33;;;-2.48;45.47
85016;BME280;75339;50.216;20.512;2024-01-10T11:08:36;100467.50;;;-2.41;44.92
85016;BME280;75339;50.216;20.512;2024-01-10T11:11:11;100476.47;;;-3.60;46.80
85016;BME280;75339;50.216;20.512;2024-01-10T11:24:41;100462.32;;;0.41;44.15
85016;BME280;75339;50.216;20.512;2024-01-10T11:27:12;100458.67;;;0.94;42.60
85016;BME280;75339;50.216;20.512;2024-01-10T11:29:40;100461.76;;;1.39;40.87
85016;BME280;75339;50.216;20.512;2024-01-10T11:32:13;100458.67;;;1.62;39.84
85016;BME280;75339;50.216;20.512;2024-01-10T11:34:59;100449.31;;;1.85;39.44
85016;BME280;75339;50.216;20.512;2024-01-10T11:37:43;100440.27;;;2.02;39.13
85016;BME280;75339;50.216;20.512;2024-01-10T11:40:12;100438.08;;;1.75;38.74
85016;BME280;75339;50.216;20.512;2024-01-10T11:42:45;100433.10;;;1.39;39.04
85016;BME280;75339;50.216;20.512;2024-01-10T11:48:00;100428.45;;;0.21;39.80
85016;BME280;75339;50.216;20.512;2024-01-10T11:50:27;100427.48;;;-0.24;40.62
85016;BME280;75339;50.216;20.512;2024-01-10T11:52:57;100424.16;;;-0.51;40.64
85016;BME280;75339;50.216;20.512;2024-01-10T11:55:51;100430.89;;;-0.73;41.26
85016;BME280;75339;50.216;20.512;2024-01-10T11:58:18;100429.45;;;-1.04;41.80
85016;BME280;75339;50.216;20.512;2024-01-10T12:00:46;100427.84;;;-1.61;42.55
85016;BME280;75339;50.216;20.512;2024-01-10T12:03:14;100429.66;;;-1.94;42.82
85016;BME280;75339;50.216;20.512;2024-01-10T12:05:42;100432.75;;;-2.05;43.73
85016;BME280;75339;50.216;20.512;2024-01-10T12:08:09;100432.55;;;-2.28;43.45
85016;BME280;75339;50.216;20.512;2024-01-10T12:10:36;100437.55;;;-2.68;43.93
85016;BME280;75339;50.216;20.512;2024-01-10T12:13:03;100441.58;;;-3.16;45.19
85016;BME280;75339;50.216;20.512;2024-01-10T12:15:30;100439.92;;;-3.41;46.16
85016;BME280;75339;50.216;20.512;2024-01-10T12:17:57;100435.45;;;-3.21;45.55
85016;BME280;75339;50.216;20.512;2024-01-10T12:20:23;100425.43;;;-3.08;45.22
85016;BME280;75339;50.216;20.512;2024-01-10T12:22:50;100428.12;;;-3.09;45.46
85016;BME280;75339;50.216;20.512;2024-01-10T12:25:17;100433.77;;;-3.27;46.08
85016;BME280;75339;50.216;20.512;2024-01-10T12:27:45;100426.06;;;-3.29;46.77
85016;BME280;75339;50.216;20.512;2024-01-10T12:30:12;100419.20;;;-3.45;47.08
85016;BME280;75339;50.216;20.512;2024-01-10T12:32:38;100415.88;;;-3.60;47.40
85016;BME280;75339;50.216;20.512;2024-01-10T12:35:05;100419.34;;;-3.50;47.92
85016;BME280;75339;50.216;20.512;2024-01-10T12:37:32;100418.52;;;-3.46;47.99
85016;BME280;75339;50.216;20.512;2024-01-10T12:39:59;100422.80;;;-3.82;48.62
85016;BME280;75339;50.216;20.512;2024-01-10T12:42:25;100426.10;;;-3.82;48.86
85016;BME280;75339;50.216;20.512;2024-01-10T12:44:52;100425.73;;;-3.36;49.76
85016;BME280;75339;50.216;20.512;2024-01-10T12:47:20;100419.21;;;-2.47;48.15
85016;BME280;75339;50.216;20.512;2024-01-10T12:49:47;100408.27;;;-1.89;46.72
85016;BME280;75339;50.216;20.512;2024-01-10T12:52:14;100408.93;;;-2.24;46.13